Time;durP1;ratioP1;P1;durP2;ratioP2;P2;SDS_P1;SDS_P2;PMS_P1;PMS_P2;Temp;Humidity;BMP_temperature;BMP_pressure;BME280_temperature;BME280_humidity;BME280_pressure;Samples;Min_cycle;Max_cycle;Signal;HPM_P1;HPM_P2
2021/05/31 00:00:32;;;;;;;4.57;2.57;;;12.20;50.00;;;;;;6190868;23;20012;-91
2021/05/31 00:02:58;;;;;;;3.50;2.67;;;12.10;50.10;;;;;;6190916;23;20434;-91
2021/05/31 00:05:36;;;;;;;6.37;2.90;;;12.00;50.20;;;;;;6191433;23;20004;-90
2021/05/31 00:08:02;;;;;;;4.77;2.70;;;11.80;50.60;;;;;;6191242;23;20005;-91
2021/05/31 00:10:28;;;;;;;4.00;2.90;;;11.60;50.80;;;;;;6190872;23;20058;-91
2021/05/31 00:12:54;;;;;;;6.80;2.63;;;11.60;51.30;;;;;;6190828;23;20435;-91
2021/05/31 00:15:20;;;;;;;4.20;2.80;;;11.60;51.50;;;;;;6191234;23;20005;-91
2021/05/31 00:17:48;;;;;;;7.23;2.90;;;11.60;51.50;;;;;;6215953;23;20043;-89
2021/05/31 00:20:15;;;;;;;5.17;3.70;;;11.60;51.60;;;;;;6189815;23;20004;-91
2021/05/31 00:22:41;;;;;;;4.93;3.10;;;11.50;51.70;;;;;;6190679;23;20032;-90
2021/05/31 00:25:08;;;;;;;5.47;2.77;;;11.50;51.70;;;;;;6190960;23;20031;-91
2021/05/31 00:27:35;;;;;;;7.20;2.70;;;11.50;51.70;;;;;;6191013;23;20339;-91
2021/05/31 00:30:01;;;;;;;5.57;3.03;;;11.50;52.00;;;;;;6191393;23;20335;-90
2021/05/31 00:32:26;;;;;;;4.17;2.67;;;11.40;52.10;;;;;;6190318;23;20032;-91
2021/05/31 00:34:52;;;;;;;6.17;3.23;;;11.40;52.20;;;;;;6190776;23;20129;-90
2021/05/31 00:37:18;;;;;;;3.53;2.53;;;11.30;52.30;;;;;;6190936;23;20013;-90
2021/05/31 00:39:44;;;;;;;7.30;2.97;;;11.30;52.30;;;;;;6190700;23;20084;-91
2021/05/31 00:42:10;;;;;;;4.13;2.97;;;11.20;52.20;;;;;;6190782;23;20043;-91
2021/05/31 00:44:36;;;;;;;5.17;2.70;;;11.10;52.60;;;;;;6191001;23;20020;-90
2021/05/31 00:47:02;;;;;;;4.73;3.10;;;11.20;52.80;;;;;;6190246;23;20386;-90
2021/05/31 00:49:35;;;;;;;3.53;2.63;;;11.10;52.90;;;;;;6190217;23;20055;-91
2021/05/31 00:52:00;;;;;;;;;;;11.00;53.10;;;;;;6189967;23;20000;-91
2021/05/31 00:54:26;;;;;;;6.20;3.03;;;11.00;53.20;;;;;;6189034;23;19923;-90
2021/05/31 00:56:52;;;;;;;5.27;3.00;;;10.90;53.30;;;;;;6216930;23;20003;-90
2021/05/31 00:59:18;;;;;;;7.40;2.67;;;10.90;53.60;;;;;;6190735;23;20382;-90
2021/05/31 01:01:43;;;;;;;6.17;3.17;;;10.80;53.70;;;;;;6184699;23;20770;-90
2021/05/31 01:04:09;;;;;;;5.23;2.77;;;10.70;53.70;;;;;;6185955;23;20407;-90
2021/05/31 01:06:39;;;;;;;4.10;2.70;;;10.70;54.00;;;;;;6189400;23;20027;-90
2021/05/31 01:09:32;;;;;;;7.03;3.27;;;10.60;54.10;;;;;;6216180;23;20431;-91
2021/05/31 01:12:11;;;;;;;4.30;2.77;;;10.50;54.80;;;;;;6189649;23;20036;-91
2021/05/31 01:14:42;;;;;;;4.33;3.03;;;10.50;55.00;;;;;;6190448;23;20004;-91
2021/05/31 01:17:26;;;;;;;6.67;3.10;;;10.50;54.90;;;;;;6189252;23;20012;-91
2021/05/31 01:19:52;;;;;;;4.20;3.33;;;10.50;55.30;;;;;;6190655;23;20005;-91
2021/05/31 01:22:25;;;;;;;4.93;3.03;;;10.40;55.10;;;;;;6189113;23;20385;-89
2021/05/31 01:24:51;;;;;;;4.60;2.90;;;10.40;56.10;;;;;;6189275;23;20007;-91
2021/05/31 01:27:20;;;;;;;4.47;3.47;;;10.30;55.60;;;;;;6190308;23;20001;-91
2021/05/31 01:29:54;;;;;;;6.27;3.07;;;10.30;55.70;;;;;;6190681;23;20007;-91
2021/05/31 01:32:35;;;;;;;4.03;2.57;;;10.40;55.70;;;;;;6189619;23;20023;-89
2021/05/31 01:35:10;;;;;;;5.90;3.27;;;10.40;55.80;;;;;;6190021;23;20018;-90
2021/05/31 01:37:39;;;;;;;4.27;2.90;;;10.40;55.70;;;;;;6190239;23;20011;-91
2021/05/31 01:40:08;;;;;;;4.93;3.30;;;10.30;55.60;;;;;;6189764;23;20063;-89
2021/05/31 01:42:35;;;;;;;4.30;3.00;;;10.40;55.70;;;;;;6216337;23;20051;-90
2021/05/31 01:45:01;;;;;;;8.17;3.50;;;10.40;55.50;;;;;;6189909;23;20027;-90
2021/05/31 01:47:28;;;;;;;5.20;3.00;;;10.40;55.10;;;;;;6189444;23;20095;-91
2021/05/31 01:49:55;;;;;;;5.63;3.43;;;10.40;54.70;;;;;;6189359;23;20000;-90
2021/05/31 01:52:25;;;;;;;4.60;3.30;;;10.40;54.70;;;;;;6189159;23;20004;-90
2021/05/31 01:54:58;;;;;;;4.40;3.23;;;10.30;54.80;;;;;;6189862;23;20059;-91
2021/05/31 01:57:24;;;;;;;5.90;3.03;;;10.20;55.00;;;;;;6190448;23;20001;-90
2021/05/31 01:59:51;;;;;;;5.53;3.10;;;10.20;55.20;;;;;;6189122;23;20028;-90
2021/05/31 02:02:18;;;;;;;8.07;3.27;;;10.10;55.50;;;;;;6189806;23;20001;-90
2021/05/31 02:04:44;;;;;;;7.07;3.30;;;10.10;56.40;;;;;;6189883;23;20001;-90
2021/05/31 02:07:20;;;;;;;5.00;3.07;;;10.00;56.00;;;;;;6190001;23;20091;-90
2021/05/31 02:09:46;;;;;;;4.80;3.17;;;10.00;56.20;;;;;;6189535;23;20009;-91
2021/05/31 02:12:13;;;;;;;4.80;3.27;;;10.10;56.10;;;;;;6189170;23;20020;-90
2021/05/31 02:15:05;;;;;;;6.17;3.40;;;10.00;56.10;;;;;;6189399;23;20024;-91
2021/05/31 02:17:57;;;;;;;3.63;2.50;;;10.00;56.70;;;;;;6216176;23;20005;-91
2021/05/31 02:20:26;;;;;;;4.57;2.40;;;9.90;55.80;;;;;;6186931;23;20314;-84
2021/05/31 02:22:56;;;;;;;4.80;2.80;;;9.90;55.40;;;;;;6188148;23;20005;-83
2021/05/31 02:25:27;;;;;;;4.07;2.53;;;9.90;55.00;;;;;;6186995;23;20008;-84
2021/05/31 02:27:59;;;;;;;3.63;2.33;;;9.90;54.80;;;;;;6183625;23;20018;-84
2021/05/31 02:30:26;;;;;;;4.55;2.55;;;9.90;54.60;;;;;;6187201;23;20004;-83
2021/05/31 02:32:56;;;;;;;6.10;2.90;;;9.80;54.60;;;;;;6186219;23;20320;-84
2021/05/31 02:35:23;;;;;;;7.37;2.47;;;9.80;54.80;;;;;;6187780;23;20012;-83
2021/05/31 02:37:49;;;;;;;6.97;2.73;;;9.80;54.70;;;;;;6187005;23;20005;-83
2021/05/31 02:40:16;;;;;;;3.80;2.70;;;9.90;54.70;;;;;;6188133;23;20024;-84
2021/05/31 02:42:51;;;;;;;5.10;2.47;;;9.90;54.60;;;;;;6187131;23;20087;-84
2021/05/31 02:45:19;;;;;;;4.17;2.70;;;10.00;54.50;;;;;;6187369;23;20070;-83
2021/05/31 02:47:45;;;;;;;4.80;2.83;;;10.00;54.30;;;;;;6187549;23;20343;-84
2021/05/31 02:50:12;;;;;;;5.33;2.43;;;10.10;54.30;;;;;;6187951;23;20426;-83
2021/05/31 02:52:41;;;;;;;6.20;2.93;;;10.00;54.10;;;;;;6187425;23;20015;-84
2021/05/31 02:55:15;;;;;;;5.87;2.90;;;10.00;54.20;;;;;;6186646;23;20004;-84
2021/05/31 02:57:42;;;;;;;4.90;2.80;;;10.10;54.10;;;;;;6187122;23;20009;-84
2021/05/31 03:00:13;;;;;;;3.43;2.37;;;10.00;53.80;;;;;;6181406;23;20004;-83
2021/05/31 03:02:40;;;;;;;4.90;2.60;;;10.00;53.90;;;;;;6187074;23;20013;-82
2021/05/31 03:05:09;;;;;;;2.90;2.20;;;9.90;54.00;;;;;;6187040;23;20095;-84
2021/05/31 03:07:34;;;;;;;3.97;2.60;;;9.80;54.10;;;;;;6185618;23;20007;-84
2021/05/31 03:10:00;;;;;;;4.00;2.67;;;9.80;54.40;;;;;;6184586;23;20083;-84
2021/05/31 03:12:26;;;;;;;3.93;2.27;;;9.80;54.70;;;;;;6182981;23;20007;-83
2021/05/31 03:14:59;;;;;;;8.10;3.13;;;9.70;54.80;;;;;;6185315;23;20084;-84
2021/05/31 03:17:34;;;;;;;5.43;2.75;;;9.70;54.90;;;;;;6212016;23;20458;-83
2021/05/31 03:20:00;;;;;;;4.53;2.40;;;9.60;54.80;;;;;;6185387;23;20084;-83
2021/05/31 03:22:26;;;;;;;4.03;2.50;;;9.60;54.80;;;;;;6187602;23;20484;-83
2021/05/31 03:24:52;;;;;;;3.77;2.90;;;9.60;54.60;;;;;;6213402;23;20031;-84
2021/05/31 03:27:17;;;;;;;7.73;2.50;;;9.60;54.60;;;;;;6213677;23;20098;-83
2021/05/31 03:29:43;;;;;;;5.60;2.63;;;9.70;54.50;;;;;;6187463;23;20016;-83
2021/05/31 03:32:09;;;;;;;5.73;2.40;;;9.60;54.30;;;;;;6187091;23;20000;-84
2021/05/31 03:34:34;;;;;;;5.80;2.83;;;9.60;54.20;;;;;;6186166;23;20032;-83
2021/05/31 03:37:00;;;;;;;4.13;2.73;;;9.70;54.30;;;;;;6186596;23;20016;-84
2021/05/31 03:39:26;;;;;;;5.17;2.43;;;9.60;54.10;;;;;;6187381;23;20424;-83
2021/05/31 03:41:52;;;;;;;2.80;2.10;;;9.60;54.30;;;;;;6190232;23;20005;-83
2021/05/31 03:44:18;;;;;;;5.13;2.80;;;9.50;54.20;;;;;;6190630;23;20435;-83
2021/05/31 03:46:48;;;;;;;3.83;2.30;;;9.50;54.20;;;;;;6189910;23;20430;-83
2021/05/31 03:49:15;;;;;;;3.90;2.53;;;9.50;54.30;;;;;;6186747;23;20001;-82
2021/05/31 03:51:40;;;;;;;9.00;2.60;;;9.40;54.50;;;;;;6188120;23;20001;-82
2021/05/31 03:54:06;;;;;;;3.73;2.47;;;9.40;54.40;;;;;;6214133;23;20001;-83
2021/05/31 03:56:32;;;;;;;6.97;2.57;;;9.40;54.50;;;;;;6187914;23;20484;-82
2021/05/31 03:58:57;;;;;;;4.10;2.53;;;9.40;54.50;;;;;;6188835;23;20009;-82
2021/05/31 04:01:24;;;;;;;4.07;2.30;;;9.30;54.60;;;;;;6215820;23;20001;-83
2021/05/31 04:03:51;;;;;;;4.57;2.50;;;9.30;54.60;;;;;;6188856;23;20385;-82
2021/05/31 04:06:26;;;;;;;6.00;2.90;;;9.40;54.70;;;;;;6188854;23;20008;-82
2021/05/31 04:11:37;;;;;;;6.07;2.87;;;9.30;54.50;;;;;;6214459;23;20139;-82
2021/05/31 04:14:18;;;;;;;7.33;2.73;;;9.30;54.70;;;;;;6188384;23;20000;-82
2021/05/31 04:16:47;;;;;;;7.20;2.57;;;9.30;54.70;;;;;;6189388;23;20152;-82
2021/05/31 04:19:14;;;;;;;3.70;2.63;;;9.30;54.70;;;;;;6188555;23;20446;-82
2021/05/31 04:21:45;;;;;;;4.40;2.57;;;9.20;54.70;;;;;;6188888;23;20015;-82
2021/05/31 04:24:11;;;;;;;3.27;2.57;;;9.20;54.90;;;;;;6189711;23;20011;-82
2021/05/31 04:26:38;;;;;;;4.20;2.50;;;9.20;55.00;;;;;;6188524;23;20406;-82
2021/05/31 04:29:05;;;;;;;5.17;2.70;;;9.30;55.00;;;;;;6215117;23;20005;-82
2021/05/31 04:31:32;;;;;;;4.90;2.57;;;9.20;55.00;;;;;;6188863;23;20001;-82
2021/05/31 04:33:58;;;;;;;5.17;2.80;;;9.20;55.10;;;;;;6188703;23;20015;-82
2021/05/31 04:36:24;;;;;;;4.63;2.50;;;9.30;55.10;;;;;;6189410;23;20599;-83
2021/05/31 04:38:50;;;;;;;6.13;2.73;;;9.30;55.10;;;;;;6188469;23;20680;-82
2021/05/31 04:41:16;;;;;;;7.43;2.60;;;9.30;55.00;;;;;;6189513;23;20011;-83
2021/05/31 04:43:43;;;;;;;3.93;2.60;;;9.30;55.10;;;;;;6188035;23;20000;-82
2021/05/31 04:46:10;;;;;;;5.33;2.53;;;9.30;55.00;;;;;;6189076;23;20020;-83
2021/05/31 04:48:35;;;;;;;4.70;2.80;;;9.20;55.20;;;;;;6188751;23;20008;-83
2021/05/31 04:51:04;;;;;;;6.00;3.03;;;9.20;55.20;;;;;;6189457;23;20028;-82
2021/05/31 04:53:31;;;;;;;5.33;3.10;;;9.20;55.30;;;;;;6189460;23;20000;-83
2021/05/31 04:55:59;;;;;;;7.10;2.80;;;9.20;55.50;;;;;;6215364;23;20008;-83
2021/05/31 04:58:25;;;;;;;3.67;2.87;;;9.20;55.60;;;;;;6188688;23;20005;-82
2021/05/31 05:00:52;;;;;;;4.23;3.10;;;9.20;55.70;;;;;;6183138;23;20684;-83
2021/05/31 05:03:18;;;;;;;3.70;2.57;;;9.20;56.00;;;;;;6182841;23;20405;-85
2021/05/31 05:05:45;;;;;;;5.73;3.10;;;9.20;56.40;;;;;;6205979;23;20388;-83
2021/05/31 05:08:11;;;;;;;4.00;2.83;;;9.30;56.50;;;;;;6188592;23;20004;-83
2021/05/31 05:10:36;;;;;;;5.33;3.00;;;9.20;56.90;;;;;;6188280;23;20000;-82
2021/05/31 05:13:03;;;;;;;9.83;4.77;;;9.20;57.10;;;;;;6215274;23;20000;-82
2021/05/31 05:15:29;;;;;;;8.27;4.47;;;9.20;57.10;;;;;;6188860;23;20040;-82
2021/05/31 05:17:56;;;;;;;12.17;7.23;;;9.20;56.90;;;;;;6187958;23;20008;-82
2021/05/31 05:20:24;;;;;;;8.97;5.80;;;9.20;56.90;;;;;;6215425;23;20079;-82
2021/05/31 05:22:50;;;;;;;12.27;5.30;;;9.20;56.90;;;;;;6188306;23;20055;-82
2021/05/31 05:25:17;;;;;;;7.20;3.47;;;9.20;56.90;;;;;;6188459;23;20043;-82
2021/05/31 05:27:44;;;;;;;9.43;3.20;;;9.20;57.10;;;;;;6188937;23;20036;-82
2021/05/31 05:30:13;;;;;;;5.70;3.50;;;9.20;57.20;;;;;;6188072;23;20011;-82
2021/05/31 05:32:40;;;;;;;8.43;3.70;;;9.30;57.00;;;;;;6189125;23;20031;-82
2021/05/31 05:35:29;;;;;;;8.03;4.20;;;9.40;57.10;;;;;;6186721;23;20005;-83
2021/05/31 05:48:17;;;;;;;7.17;3.80;;;9.40;58.00;;;;;;6215232;23;20091;-82
2021/05/31 05:50:43;;;;;;;7.73;3.80;;;9.40;58.30;;;;;;6215526;23;20024;-83
2021/05/31 05:53:08;;;;;;;5.70;3.83;;;9.40;58.20;;;;;;6188725;23;20009;-82
2021/05/31 05:55:34;;;;;;;6.00;3.80;;;9.50;58.30;;;;;;6188490;23;20001;-82
2021/05/31 05:58:00;;;;;;;7.00;5.20;;;9.60;58.30;;;;;;6187847;23;20008;-83
2021/05/31 06:00:28;;;;;;;6.57;4.73;;;9.60;58.30;;;;;;6188020;23;20031;-84
2021/05/31 06:02:54;;;;;;;17.50;5.93;;;9.60;58.40;;;;;;6187859;23;20011;-82
2021/05/31 06:05:28;;;;;;;8.10;4.97;;;9.70;59.00;;;;;;6187799;23;20004;-82
2021/05/31 06:08:09;;;;;;;7.07;4.73;;;9.70;58.60;;;;;;6187753;23;20091;-83
2021/05/31 06:10:35;;;;;;;14.43;5.27;;;9.80;58.50;;;;;;6188094;23;20040;-82
2021/05/31 06:13:01;;;;;;;8.33;4.97;;;9.90;58.30;;;;;;6188747;23;20008;-83
2021/05/31 06:15:26;;;;;;;10.47;5.10;;;9.90;58.10;;;;;;6188090;23;20076;-83
2021/05/31 06:17:52;;;;;;;10.03;5.30;;;10.00;58.00;;;;;;6188369;23;20024;-83
2021/05/31 06:20:18;;;;;;;7.43;4.93;;;10.00;58.10;;;;;;6187994;23;20005;-82
2021/05/31 06:22:43;;;;;;;6.93;4.63;;;10.00;58.20;;;;;;6187890;23;20139;-83
2021/05/31 06:25:11;;;;;;;8.47;4.73;;;10.10;58.30;;;;;;6187577;23;20008;-83
2021/05/31 06:27:37;;;;;;;7.40;4.47;;;10.10;58.50;;;;;;6188386;23;20009;-83
2021/05/31 06:30:07;;;;;;;10.23;5.30;;;10.20;58.50;;;;;;6188379;23;20005;-83
2021/05/31 06:32:33;;;;;;;10.97;4.97;;;10.20;58.50;;;;;;6187400;23;20023;-83
2021/05/31 06:34:58;;;;;;;7.67;5.50;;;10.30;58.40;;;;;;6187839;23;20005;-83
2021/05/31 06:37:37;;;;;;;10.67;5.67;;;10.30;58.50;;;;;;6187938;23;20051;-83
2021/05/31 06:40:08;;;;;;;16.33;5.13;;;10.30;58.50;;;;;;6188227;23;20012;-83
2021/05/31 06:42:36;;;;;;;15.17;6.20;;;10.40;58.40;;;;;;6187819;23;20012;-83
2021/05/31 06:45:04;;;;;;;8.03;5.50;;;10.40;58.30;;;;;;6187625;23;20021;-83
2021/05/31 06:47:30;;;;;;;6.30;4.60;;;10.50;58.30;;;;;;6187247;23;20004;-83
2021/05/31 06:49:56;;;;;;;10.53;4.57;;;10.60;58.60;;;;;;6214447;23;19996;-83
2021/05/31 06:52:22;;;;;;;8.77;4.83;;;10.80;58.40;;;;;;6188129;23;20513;-85
2021/05/31 06:54:48;;;;;;;8.30;4.80;;;11.00;58.40;;;;;;6188044;23;20005;-84
2021/05/31 06:57:15;;;;;;;7.90;4.87;;;11.20;58.30;;;;;;6183449;23;20009;-84
2021/05/31 06:59:48;;;;;;;7.33;4.37;;;11.30;57.70;;;;;;6187231;23;20087;-83
2021/05/31 07:02:13;;;;;;;;;;;11.40;57.50;;;;;;6213320;23;20005;-83
2021/05/31 07:04:39;;;;;;;11.73;4.10;;;11.60;57.30;;;;;;6187096;23;19907;-83
2021/05/31 07:07:05;;;;;;;7.47;4.47;;;11.70;57.00;;;;;;6186600;23;20036;-83
2021/05/31 07:09:30;;;;;;;6.67;3.93;;;11.90;57.00;;;;;;6213490;23;20001;-84
2021/05/31 07:11:56;;;;;;;8.03;3.97;;;12.20;56.80;;;;;;6212626;23;19997;-83
2021/05/31 07:14:32;;;;;;;5.30;3.57;;;12.30;56.50;;;;;;6187453;23;20336;-84
2021/05/31 07:16:58;;;;;;;5.10;3.90;;;12.40;56.20;;;;;;6185810;23;20001;-83
2021/05/31 07:19:25;;;;;;;5.63;4.00;;;12.60;56.00;;;;;;6213777;23;20001;-84
2021/05/31 07:21:51;;;;;;;6.30;3.90;;;12.70;55.60;;;;;;6187972;23;20059;-84
2021/05/31 07:24:17;;;;;;;9.07;4.23;;;12.90;55.40;;;;;;6215436;23;20004;-83
2021/05/31 07:26:43;;;;;;;4.33;3.27;;;12.90;54.90;;;;;;6188037;23;20059;-83
2021/05/31 07:29:08;;;;;;;6.43;3.93;;;13.00;54.50;;;;;;6213552;23;20009;-83
2021/05/31 07:31:34;;;;;;;8.20;3.83;;;13.30;54.00;;;;;;6187611;23;20005;-85
2021/05/31 07:34:00;;;;;;;6.20;3.27;;;13.40;53.90;;;;;;6188107;23;20001;-83
2021/05/31 07:36:33;;;;;;;5.30;3.70;;;13.50;53.80;;;;;;6189388;23;20005;-83
2021/05/31 07:38:59;;;;;;;;;;;13.60;53.70;;;;;;6188731;23;20038;-83
2021/05/31 07:41:26;;;;;;;4.83;3.40;;;13.60;53.50;;;;;;6186427;23;19904;-84
2021/05/31 07:43:59;;;;;;;7.27;3.90;;;13.70;53.20;;;;;;6188459;23;20008;-83
2021/05/31 07:46:24;;;;;;;9.57;3.77;;;13.80;52.30;;;;;;6182440;23;20079;-84
2021/05/31 07:48:51;;;;;;;9.43;3.37;;;13.80;51.80;;;;;;6183182;23;20423;-83
2021/05/31 07:51:21;;;;;;;5.80;2.93;;;13.90;51.60;;;;;;6183092;23;20451;-83
2021/05/31 07:53:52;;;;;;;5.47;3.60;;;14.00;51.30;;;;;;6184411;23;20344;-84
2021/05/31 07:56:18;;;;;;;6.63;4.00;;;14.20;50.60;;;;;;6183810;23;20084;-83
2021/05/31 07:58:45;;;;;;;6.37;3.87;;;14.40;50.20;;;;;;6185219;23;20009;-84
2021/05/31 08:01:12;;;;;;;9.87;3.50;;;14.50;49.60;;;;;;6176974;23;20009;-83
2021/05/31 08:03:39;;;;;;;7.60;3.43;;;14.60;49.40;;;;;;6182528;23;20012;-83
2021/05/31 08:06:06;;;;;;;7.43;3.50;;;14.80;49.10;;;;;;6184314;23;20012;-83
2021/05/31 08:08:31;;;;;;;5.50;3.23;;;15.00;49.20;;;;;;6184256;23;20347;-83
2021/05/31 08:10:58;;;;;;;5.13;3.40;;;15.20;49.10;;;;;;6184347;23;20008;-84
2021/05/31 08:13:24;;;;;;;6.60;3.30;;;15.60;49.00;;;;;;6184489;23;20028;-84
2021/05/31 08:15:51;;;;;;;9.43;3.50;;;15.90;48.80;;;;;;6184483;23;20087;-83
2021/05/31 08:18:18;;;;;;;8.80;3.03;;;16.20;48.20;;;;;;6184736;23;20012;-83
2021/05/31 08:20:44;;;;;;;7.70;3.42;;;16.40;47.70;;;;;;6183247;23;20005;-83
2021/05/31 08:23:09;;;;;;;6.47;3.47;;;16.70;47.20;;;;;;6185767;23;20139;-83
2021/05/31 08:25:35;;;;;;;7.63;3.30;;;16.90;46.60;;;;;;6185908;23;20372;-83
2021/05/31 08:28:03;;;;;;;3.72;2.40;;;17.10;45.90;;;;;;6183836;23;20015;-83
2021/05/31 08:30:30;;;;;;;6.18;2.90;;;17.20;45.30;;;;;;6186076;23;20028;-83
2021/05/31 08:32:57;;;;;;;9.13;3.40;;;17.40;44.80;;;;;;6182924;23;20009;-83
2021/05/31 08:35:24;;;;;;;6.07;2.90;;;17.50;44.60;;;;;;6186083;23;20371;-84
2021/05/31 08:37:50;;;;;;;5.60;3.33;;;17.60;44.50;;;;;;6186158;23;20005;-83
2021/05/31 08:40:16;;;;;;;7.03;3.50;;;17.70;44.00;;;;;;6186021;23;20012;-82
2021/05/31 08:42:42;;;;;;;5.50;3.33;;;17.70;43.30;;;;;;6186669;23;20005;-82
2021/05/31 08:45:11;;;;;;;6.47;3.10;;;17.70;42.80;;;;;;6197000;23;20526;-83
2021/05/31 08:47:41;;;;;;;5.68;3.00;;;17.80;43.00;;;;;;6215556;23;20426;-82
2021/05/31 08:50:09;;;;;;;3.78;2.50;;;17.90;42.50;;;;;;6190095;23;20009;-84
2021/05/31 08:52:36;;;;;;;5.00;2.80;;;18.10;42.60;;;;;;6189162;23;19997;-83
2021/05/31 08:55:07;;;;;;;4.40;2.85;;;18.10;42.20;;;;;;6189172;23;20000;-83
2021/05/31 08:57:32;;;;;;;5.95;2.30;;;18.30;41.90;;;;;;6189694;23;20001;-82
2021/05/31 08:59:58;;;;;;;4.32;2.28;;;18.50;41.60;;;;;;6188758;23;20031;-82
2021/05/31 09:02:24;;;;;;;4.47;2.30;;;18.50;40.90;;;;;;6189293;23;20012;-83
2021/05/31 09:04:54;;;;;;;9.75;2.40;;;18.50;40.30;;;;;;6217698;23;20020;-82
2021/05/31 09:07:21;;;;;;;5.13;2.70;;;18.60;40.20;;;;;;6190335;23;20000;-82
2021/05/31 09:09:47;;;;;;;9.82;2.92;;;18.70;39.90;;;;;;6190160;23;20358;-82
2021/05/31 09:12:22;;;;;;;6.93;2.30;;;18.70;39.60;;;;;;6191753;23;20075;-85
2021/05/31 09:15:05;;;;;;;5.38;2.17;;;18.80;39.20;;;;;;6189416;23;20009;-85
2021/05/31 09:17:33;;;;;;;7.13;2.30;;;18.90;39.10;;;;;;6188821;23;20079;-85
2021/05/31 09:19:59;;;;;;;3.47;2.50;;;19.00;39.00;;;;;;6189804;23;20032;-84
2021/05/31 09:22:26;;;;;;;4.28;2.15;;;19.10;38.70;;;;;;6188695;23;20066;-86
2021/05/31 09:25:04;;;;;;;7.78;2.42;;;19.20;38.70;;;;;;6215513;23;20021;-84
2021/05/31 09:27:31;;;;;;;7.45;2.53;;;19.20;37.70;;;;;;6188849;23;20005;-85
2021/05/31 09:30:00;;;;;;;4.15;2.47;;;19.20;37.70;;;;;;6215156;23;20011;-84
2021/05/31 09:32:27;;;;;;;5.68;2.60;;;19.30;37.40;;;;;;6189115;23;20013;-85
2021/05/31 09:35:01;;;;;;;4.25;2.60;;;19.40;37.00;;;;;;6188388;23;20028;-84
2021/05/31 09:37:27;;;;;;;3.47;2.30;;;19.50;36.40;;;;;;6188620;23;20008;-84
2021/05/31 09:40:03;;;;;;;6.20;2.75;;;19.50;36.60;;;;;;6188426;23;20051;-84
2021/05/31 09:42:30;;;;;;;3.95;2.33;;;19.60;36.40;;;;;;6188234;23;20678;-85
2021/05/31 09:45:08;;;;;;;10.05;2.70;;;19.70;36.40;;;;;;6182688;23;20358;-85
2021/05/31 09:47:36;;;;;;;6.53;2.85;;;19.80;35.30;;;;;;6183418;23;19997;-82
2021/05/31 09:50:04;;;;;;;4.50;2.95;;;19.80;35.30;;;;;;6183453;23;20001;-85
2021/05/31 09:52:30;;;;;;;3.58;2.50;;;19.80;35.70;;;;;;6183790;23;20051;-85
2021/05/31 09:54:56;;;;;;;4.45;2.22;;;19.90;35.90;;;;;;6184697;23;20001;-85
2021/05/31 09:57:29;;;;;;;9.40;2.65;;;20.10;35.90;;;;;;6181903;23;20507;-85
2021/05/31 10:00:20;;;;;;;5.22;2.78;;;20.20;35.20;;;;;;6179651;23;20015;-85
2021/05/31 10:03:31;;;;;;;5.53;2.28;;;20.30;35.50;;;;;;6182616;23;20031;-84
2021/05/31 10:10:55;;;;;;;5.78;2.42;;;20.50;34.70;;;;;;6184780;23;20067;-85
2021/05/31 10:13:23;;;;;;;3.20;1.83;;;20.60;34.80;;;;;;6183526;23;20056;-84
2021/05/31 10:15:50;;;;;;;2.88;1.95;;;20.70;34.00;;;;;;6183309;23;20008;-85
2021/05/31 10:18:19;;;;;;;3.53;1.98;;;20.80;33.70;;;;;;6182774;23;20015;-85
2021/05/31 10:20:46;;;;;;;6.30;2.42;;;20.80;33.70;;;;;;6184697;23;20428;-86
2021/05/31 10:23:14;;;;;;;4.85;2.33;;;20.80;33.60;;;;;;6183066;23;20001;-85
2021/05/31 10:25:46;;;;;;;3.78;1.95;;;20.90;33.60;;;;;;6182298;23;20005;-85
2021/05/31 10:28:36;;;;;;;3.13;1.80;;;20.90;33.40;;;;;;6182600;23;20005;-85
2021/05/31 10:31:05;;;;;;;7.40;1.85;;;21.00;33.70;;;;;;6183250;23;20012;-85
2021/05/31 10:33:37;;;;;;;4.78;2.22;;;21.00;33.10;;;;;;6183398;23;20423;-85
2021/05/31 10:36:20;;;;;;;6.40;2.35;;;21.00;33.30;;;;;;6183448;23;20005;-85
2021/05/31 10:38:49;;;;;;;5.93;2.67;;;21.00;32.50;;;;;;6183633;23;20029;-84
2021/05/31 10:41:19;;;;;;;5.28;2.50;;;21.00;33.30;;;;;;6184857;23;20056;-84
2021/05/31 10:43:49;;;;;;;2.75;1.60;;;21.20;33.20;;;;;;6184568;23;20012;-84
2021/05/31 10:46:18;;;;;;;3.05;2.28;;;21.20;33.20;;;;;;6182899;23;20016;-85
2021/05/31 10:48:51;;;;;;;6.85;2.15;;;21.30;33.60;;;;;;6183281;23;20009;-84
2021/05/31 10:51:20;;;;;;;3.70;1.80;;;21.50;33.70;;;;;;6185026;23;20008;-85
2021/05/31 10:53:46;;;;;;;4.13;1.92;;;21.60;33.10;;;;;;6182991;23;20005;-85
2021/05/31 10:56:25;;;;;;;4.60;1.80;;;21.50;32.50;;;;;;6183461;23;20037;-85
2021/05/31 10:58:56;;;;;;;5.63;1.92;;;21.60;31.80;;;;;;6182840;23;20005;-86
2021/05/31 11:01:37;;;;;;;5.07;1.98;;;21.60;32.10;;;;;;6184859;23;20001;-84
2021/05/31 11:04:33;;;;;;;2.45;1.48;;;21.70;31.60;;;;;;6182341;23;20013;-85
2021/05/31 11:07:01;;;;;;;4.20;1.45;;;21.80;31.70;;;;;;6165785;23;20013;-85
2021/05/31 11:09:33;;;;;;;2.75;1.40;;;21.80;31.40;;;;;;6185506;23;20108;-84
2021/05/31 11:12:10;;;;;;;5.05;1.83;;;21.90;30.90;;;;;;6184493;23;20015;-85
2021/05/31 11:14:47;;;;;;;5.72;1.52;;;22.00;30.70;;;;;;6184832;23;20001;-84
2021/05/31 11:17:14;;;;;;;3.15;1.90;;;22.00;30.70;;;;;;6185104;23;20501;-85
2021/05/31 11:19:45;;;;;;;9.77;2.17;;;22.10;30.50;;;;;;6186838;23;20071;-84
2021/05/31 11:22:24;;;;;;;3.40;1.13;;;22.00;30.20;;;;;;6186683;23;20339;-85
2021/05/31 11:24:53;;;;;;;5.18;1.63;;;22.10;30.10;;;;;;6184430;23;20005;-85
2021/05/31 11:27:22;;;;;;;7.72;1.67;;;22.20;30.30;;;;;;6184219;23;20024;-84
2021/05/31 11:29:50;;;;;;;3.15;1.40;;;22.30;30.00;;;;;;6183635;23;20009;-84
2021/05/31 11:32:17;;;;;;;5.28;2.00;;;22.30;29.70;;;;;;6182305;23;20340;-85
2021/05/31 11:35:05;;;;;;;4.57;1.50;;;22.20;29.70;;;;;;6183766;23;20009;-85
2021/05/31 11:37:32;;;;;;;8.18;1.67;;;22.30;29.80;;;;;;6184269;23;20001;-85
2021/05/31 11:39:59;;;;;;;3.58;1.85;;;22.30;29.70;;;;;;6184487;23;20008;-85
2021/05/31 11:42:25;;;;;;;4.97;1.98;;;22.30;29.40;;;;;;6184091;23;20013;-85
2021/05/31 11:44:53;;;;;;;7.15;1.85;;;22.40;29.40;;;;;;6183996;23;20021;-85
2021/05/31 11:47:23;;;;;;;2.92;1.73;;;22.50;29.50;;;;;;6183678;23;20021;-85
2021/05/31 11:49:49;;;;;;;4.40;1.67;;;22.50;29.50;;;;;;6184870;23;20009;-85
2021/05/31 11:52:16;;;;;;;4.53;1.48;;;22.50;29.10;;;;;;6183669;23;20152;-85
2021/05/31 11:54:43;;;;;;;5.57;1.80;;;22.40;29.10;;;;;;6185069;23;20005;-85
2021/05/31 11:57:14;;;;;;;4.45;1.65;;;22.40;29.30;;;;;;6184309;23;20391;-85
2021/05/31 11:59:42;;;;;;;2.92;1.33;;;22.40;29.40;;;;;;6183797;23;20032;-85
2021/05/31 12:02:13;;;;;;;5.72;1.58;;;22.50;29.50;;;;;;6181072;23;20428;-86
2021/05/31 12:04:42;;;;;;;3.38;1.45;;;22.60;29.50;;;;;;6180499;23;20523;-85
2021/05/31 12:07:13;;;;;;;4.93;1.95;;;22.60;29.40;;;;;;6183959;23;20009;-85
2021/05/31 12:09:44;;;;;;;3.03;1.30;;;22.70;29.50;;;;;;6185720;23;20427;-85
2021/05/31 12:12:12;;;;;;;2.78;1.40;;;22.80;29.50;;;;;;6184126;23;20011;-84
2021/05/31 12:14:50;;;;;;;3.80;1.27;;;22.80;29.40;;;;;;6184847;23;20062;-85
2021/05/31 12:17:18;;;;;;;5.43;2.00;;;22.80;29.30;;;;;;6182710;23;20063;-86
2021/05/31 12:19:46;;;;;;;6.47;1.95;;;22.80;29.20;;;;;;6184351;23;19997;-85
2021/05/31 12:22:12;;;;;;;4.95;1.40;;;22.70;28.80;;;;;;6184088;23;20040;-85
2021/05/31 12:24:50;;;;;;;4.68;1.88;;;22.70;28.90;;;;;;6184197;23;20005;-85
2021/05/31 12:27:25;;;;;;;4.22;1.45;;;22.80;29.10;;;;;;6185722;23;20072;-87
2021/05/31 12:29:52;;;;;;;4.00;1.33;;;22.70;28.70;;;;;;6184001;23;20427;-85
2021/05/31 12:32:21;;;;;;;2.30;1.38;;;22.70;28.90;;;;;;6184078;23;20387;-85
2021/05/31 12:34:48;;;;;;;1.75;1.35;;;22.80;28.80;;;;;;6184126;23;20005;-84
2021/05/31 12:37:16;;;;;;;2.45;1.60;;;22.70;28.90;;;;;;6185178;23;19997;-85
2021/05/31 12:39:46;;;;;;;3.50;1.52;;;22.70;28.70;;;;;;6183403;23;20013;-85
2021/05/31 12:42:13;;;;;;;3.25;1.13;;;22.80;28.70;;;;;;6186362;23;20428;-85
2021/05/31 12:44:40;;;;;;;7.95;1.55;;;22.70;28.80;;;;;;6183907;23;20009;-85
2021/05/31 12:47:12;;;;;;;2.88;1.40;;;22.80;28.90;;;;;;6184120;23;20147;-85
2021/05/31 12:49:47;;;;;;;3.60;1.70;;;22.90;28.70;;;;;;6184461;23;20020;-85
2021/05/31 12:52:14;;;;;;;4.30;1.30;;;22.90;28.20;;;;;;6184196;23;20012;-84
2021/05/31 12:54:40;;;;;;;2.78;1.40;;;22.70;28.50;;;;;;6184152;23;20320;-84
2021/05/31 12:57:08;;;;;;;8.65;2.05;;;22.60;28.90;;;;;;6183659;23;20001;-85
2021/05/31 12:59:34;;;;;;;3.97;1.60;;;22.70;29.10;;;;;;6184144;23;20031;-87
2021/05/31 13:02:00;;;;;;;5.97;1.40;;;22.80;29.40;;;;;;6183726;23;20671;-87
2021/05/31 13:04:28;;;;;;;3.15;1.65;;;22.80;29.50;;;;;;6184457;23;20009;-85
2021/05/31 13:06:54;;;;;;;5.03;1.88;;;22.90;29.40;;;;;;6183641;23;20343;-84
2021/05/31 13:09:25;;;;;;;4.03;1.67;;;23.00;29.50;;;;;;6184374;23;20013;-85
2021/05/31 13:11:53;;;;;;;2.85;1.98;;;23.00;29.50;;;;;;6183883;23;20547;-85
2021/05/31 13:14:23;;;;;;;4.13;2.03;;;23.00;29.80;;;;;;6183895;23;20321;-85
2021/05/31 13:16:59;;;;;;;6.97;1.90;;;23.10;29.60;;;;;;6185551;23;20028;-85